Time;durP1;ratioP1;P1;durP2;ratioP2;P2;SDS_P1;SDS_P2;PMS_P1;PMS_P2;Temp;Humidity;BMP_temperature;BMP_pressure;BME280_temperature;BME280_humidity;BME280_pressure;Samples;Min_cycle;Max_cycle;Signal;HPM_P1;HPM_P2
2023/08/22 00:01:29;;;;;;;4.40;3.97;;;22.20;99.90;;;;;;5029473;28;20476;-66
2023/08/22 00:03:56;;;;;;;4.93;4.30;;;22.20;99.90;;;;;;5013788;28;20833;-65
2023/08/22 00:06:25;;;;;;;4.73;4.33;;;22.20;99.90;;;;;;5002140;28;20467;-65
2023/08/22 00:08:51;;;;;;;4.73;4.17;;;22.20;99.90;;;;;;5025650;28;20479;-65
2023/08/22 00:11:18;;;;;;;4.53;4.13;;;22.10;99.90;;;;;;5013109;28;20522;-65
2023/08/22 00:13:45;;;;;;;4.60;4.20;;;22.10;99.90;;;;;;5023465;28;20845;-65
2023/08/22 00:16:12;;;;;;;4.50;4.10;;;22.10;99.90;;;;;;5019979;28;20465;-65
2023/08/22 00:18:38;;;;;;;4.13;3.83;;;22.10;99.90;;;;;;5021673;28;20456;-65
2023/08/22 00:21:05;;;;;;;4.97;4.57;;;22.00;99.90;;;;;;5020084;28;21079;-65
2023/08/22 00:23:33;;;;;;;5.77;4.67;;;22.00;99.90;;;;;;5101037;22;20523;-63
2023/08/22 00:26:00;;;;;;;4.53;4.00;;;22.00;99.90;;;;;;5029539;28;20456;-63
2023/08/22 00:28:26;;;;;;;4.80;4.40;;;22.00;99.90;;;;;;5025786;28;20457;-64
2023/08/22 00:30:54;;;;;;;4.50;4.10;;;22.00;99.90;;;;;;5025186;28;20994;-64
2023/08/22 00:33:20;;;;;;;4.10;3.70;;;21.90;99.90;;;;;;5030275;28;20870;-63
2023/08/22 00:35:48;;;;;;;6.40;4.00;;;22.00;99.90;;;;;;5033678;28;20455;-63
2023/08/22 00:38:15;;;;;;;4.80;4.40;;;21.90;99.90;;;;;;5033373;28;20448;-64
2023/08/22 00:40:43;;;;;;;5.13;4.63;;;21.90;99.90;;;;;;5033096;28;20482;-64
2023/08/22 00:43:10;;;;;;;5.57;4.00;;;21.90;99.90;;;;;;5033553;28;20488;-64
2023/08/22 00:45:37;;;;;;;4.40;4.00;;;21.80;99.90;;;;;;5033531;28;20487;-63
2023/08/22 00:48:04;;;;;;;5.03;4.60;;;21.80;99.90;;;;;;5033068;28;20467;-63
2023/08/22 00:50:31;;;;;;;4.37;3.97;;;21.80;99.90;;;;;;5033178;28;20489;-63
2023/08/22 00:52:58;;;;;;;5.10;4.60;;;21.80;99.90;;;;;;5033458;28;20536;-63
2023/08/22 00:55:25;;;;;;;4.60;4.13;;;21.80;99.90;;;;;;5033198;28;20489;-63
2023/08/22 00:57:53;;;;;;;4.90;4.50;;;21.80;99.90;;;;;;5032996;28;20829;-64
2023/08/22 01:00:20;;;;;;;4.83;4.43;;;21.70;99.90;;;;;;5032857;28;20860;-63
2023/08/22 01:02:47;;;;;;;4.50;4.10;;;21.70;99.90;;;;;;5032941;28;20486;-64
2023/08/22 01:05:15;;;;;;;5.77;3.60;;;21.70;99.90;;;;;;5033025;28;20468;-63
2023/08/22 01:07:49;;;;;;;4.67;4.27;;;21.70;99.90;;;;;;5032854;28;20524;-64
2023/08/22 01:10:20;;;;;;;6.53;4.13;;;21.70;99.90;;;;;;5032530;28;20536;-63
2023/08/22 01:12:56;;;;;;;4.57;4.20;;;21.70;99.90;;;;;;5032934;28;20507;-64
2023/08/22 01:15:25;;;;;;;4.33;3.60;;;21.70;99.90;;;;;;5032863;28;20458;-63
2023/08/22 01:17:54;;;;;;;4.13;3.73;;;21.70;99.90;;;;;;5032526;28;20459;-63
2023/08/22 01:20:21;;;;;;;4.70;4.30;;;21.60;99.90;;;;;;5032420;28;20533;-64
2023/08/22 01:22:49;;;;;;;5.40;4.67;;;21.60;99.90;;;;;;5032553;28;20485;-63
2023/08/22 01:25:16;;;;;;;4.47;4.07;;;21.60;99.90;;;;;;5032551;28;20505;-63
2023/08/22 01:28:00;;;;;;;4.60;4.20;;;21.60;99.90;;;;;;5032453;28;20962;-63
2023/08/22 01:30:33;;;;;;;5.80;4.27;;;21.60;99.90;;;;;;5032272;28;20486;-62
2023/08/22 01:33:07;;;;;;;4.43;4.03;;;21.60;99.90;;;;;;5032049;28;20457;-64
2023/08/22 01:35:37;;;;;;;4.20;3.80;;;21.50;99.90;;;;;;5032761;28;20457;-63
2023/08/22 01:38:06;;;;;;;4.33;3.83;;;21.50;99.90;;;;;;5032421;28;20839;-63
2023/08/22 01:40:33;;;;;;;5.43;4.80;;;21.50;99.90;;;;;;5032211;28;20555;-63
2023/08/22 01:43:00;;;;;;;5.23;4.40;;;21.50;99.90;;;;;;5032453;28;20481;-63
2023/08/22 01:45:27;;;;;;;5.00;4.27;;;21.40;99.90;;;;;;5031543;28;20453;-63
2023/08/22 01:47:54;;;;;;;4.17;3.80;;;21.50;99.90;;;;;;5032070;28;20464;-63
2023/08/22 01:50:21;;;;;;;4.20;3.80;;;21.40;99.90;;;;;;5031909;28;20488;-63
2023/08/22 01:52:48;;;;;;;4.50;4.10;;;21.40;99.90;;;;;;5032160;28;20462;-63
2023/08/22 01:55:16;;;;;;;4.50;4.10;;;21.30;99.90;;;;;;5031882;28;20468;-63
2023/08/22 01:57:43;;;;;;;4.80;4.40;;;21.30;99.90;;;;;;5031892;28;20515;-63
2023/08/22 02:00:10;;;;;;;4.57;3.83;;;21.30;99.90;;;;;;5031692;28;20478;-63
2023/08/22 02:02:37;;;;;;;5.13;3.80;;;21.30;99.90;;;;;;5032035;28;20481;-64
2023/08/22 02:05:04;;;;;;;4.33;3.93;;;21.20;99.90;;;;;;5032041;28;20889;-64
2023/08/22 02:07:34;;;;;;;4.73;4.30;;;21.20;99.90;;;;;;5031621;28;20453;-63
2023/08/22 02:10:02;;;;;;;5.57;4.90;;;21.20;99.90;;;;;;5031290;28;20485;-64
2023/08/22 02:12:30;;;;;;;4.37;3.97;;;21.20;99.90;;;;;;5031786;28;20469;-64
2023/08/22 02:14:57;;;;;;;4.27;3.50;;;21.20;99.90;;;;;;5031556;28;20982;-64
2023/08/22 02:17:24;;;;;;;4.90;4.20;;;21.10;99.90;;;;;;5031587;28;20475;-63
2023/08/22 02:19:51;;;;;;;4.20;3.80;;;21.10;99.90;;;;;;5031143;28;20859;-63
2023/08/22 02:22:17;;;;;;;4.37;3.83;;;21.10;99.90;;;;;;5031322;28;20486;-64
2023/08/22 02:24:44;;;;;;;4.13;3.60;;;21.10;99.90;;;;;;5031353;28;20957;-65
2023/08/22 02:27:11;;;;;;;4.63;4.10;;;21.10;99.90;;;;;;5031261;28;20463;-64
2023/08/22 02:29:39;;;;;;;4.50;3.87;;;21.10;99.90;;;;;;5031424;28;20902;-64
2023/08/22 02:32:06;;;;;;;4.83;4.33;;;21.20;99.90;;;;;;5030632;28;20453;-64
2023/08/22 02:34:33;;;;;;;4.37;3.57;;;21.20;99.90;;;;;;5031320;28;20455;-65
2023/08/22 02:36:59;;;;;;;4.13;3.73;;;21.20;99.90;;;;;;5031112;28;20469;-65
2023/08/22 02:39:26;;;;;;;4.97;3.77;;;21.20;99.90;;;;;;5031142;28;21004;-65
2023/08/22 02:41:53;;;;;;;4.37;3.50;;;21.20;99.90;;;;;;5030931;28;20454;-65
2023/08/22 02:44:19;;;;;;;4.80;3.80;;;21.20;99.90;;;;;;5030922;28;20457;-65
2023/08/22 02:46:47;;;;;;;4.40;3.90;;;21.10;99.90;;;;;;5031030;28;20475;-64
2023/08/22 02:49:14;;;;;;;4.20;3.83;;;21.10;99.90;;;;;;5030816;28;20485;-65
2023/08/22 02:51:41;;;;;;;4.70;4.30;;;21.10;99.90;;;;;;5030002;28;20464;-64
2023/08/22 02:54:08;;;;;;;4.10;3.70;;;21.10;99.90;;;;;;5030959;28;20213;-64
2023/08/22 02:56:34;;;;;;;5.37;4.20;;;21.10;99.90;;;;;;5030751;28;20464;-64
2023/08/22 02:59:01;;;;;;;4.40;3.50;;;21.10;99.90;;;;;;5030576;28;20478;-65
2023/08/22 03:01:28;;;;;;;4.30;3.90;;;21.00;99.90;;;;;;5030449;28;20458;-64
2023/08/22 03:03:56;;;;;;;4.17;3.80;;;21.00;99.90;;;;;;5030661;28;20865;-65
2023/08/22 03:06:23;;;;;;;7.00;4.70;;;21.00;99.90;;;;;;5030770;28;20463;-65
2023/08/22 03:08:50;;;;;;;4.37;3.70;;;20.90;99.90;;;;;;5030501;28;20465;-65
2023/08/22 03:11:16;;;;;;;4.23;3.83;;;20.90;99.90;;;;;;5030252;28;20457;-64
2023/08/22 03:13:43;;;;;;;3.80;3.43;;;20.90;99.90;;;;;;5030565;28;20459;-65
2023/08/22 03:16:10;;;;;;;4.27;3.87;;;20.90;99.90;;;;;;5030756;28;20844;-65
2023/08/22 03:18:36;;;;;;;3.60;3.27;;;20.80;99.90;;;;;;5030154;28;20462;-64
2023/08/22 03:21:04;;;;;;;4.20;3.80;;;20.80;99.90;;;;;;5029994;28;20468;-64
2023/08/22 03:23:31;;;;;;;4.53;3.53;;;20.70;99.90;;;;;;5030183;28;20835;-65
2023/08/22 03:25:59;;;;;;;4.47;4.03;;;20.70;99.90;;;;;;5030417;28;20463;-64
2023/08/22 03:28:26;;;;;;;4.23;3.80;;;20.70;99.90;;;;;;5030066;28;20463;-65
2023/08/22 03:30:57;;;;;;;4.43;3.93;;;20.70;99.90;;;;;;5029855;28;20480;-65
2023/08/22 03:33:24;;;;;;;3.90;3.60;;;20.60;99.90;;;;;;5030148;28;20494;-64
2023/08/22 03:35:52;;;;;;;4.47;3.80;;;20.60;99.90;;;;;;5029731;28;20575;-64
2023/08/22 03:38:20;;;;;;;5.90;4.10;;;20.60;99.90;;;;;;5029222;28;20843;-65
2023/08/22 03:40:47;;;;;;;4.53;4.13;;;20.60;99.90;;;;;;5029751;28;20854;-64
2023/08/22 03:43:14;;;;;;;4.30;3.90;;;20.50;99.90;;;;;;5028266;28;20484;-64
2023/08/22 03:45:41;;;;;;;7.23;4.00;;;20.50;99.90;;;;;;5029763;28;20467;-64
2023/08/22 03:48:07;;;;;;;3.77;3.47;;;20.50;99.90;;;;;;5029891;28;20970;-64
2023/08/22 03:50:34;;;;;;;5.33;3.20;;;20.40;99.90;;;;;;5029528;28;20881;-64
2023/08/22 03:53:01;;;;;;;4.30;3.90;;;20.40;99.90;;;;;;5029938;28;20453;-64
2023/08/22 03:55:29;;;;;;;4.57;4.13;;;20.40;99.90;;;;;;5029821;28;20895;-65
2023/08/22 03:57:58;;;;;;;4.83;3.97;;;20.40;99.90;;;;;;5029151;28;20458;-64
2023/08/22 04:00:25;;;;;;;4.27;3.87;;;20.30;99.90;;;;;;5026961;28;21010;-64
2023/08/22 04:02:55;;;;;;;5.07;3.83;;;20.30;99.90;;;;;;5027616;28;20534;-64
2023/08/22 04:05:22;;;;;;;5.53;3.73;;;20.30;99.90;;;;;;5029018;28;20510;-64
2023/08/22 04:07:49;;;;;;;4.90;4.30;;;20.20;99.90;;;;;;5029130;28;20848;-65
2023/08/22 04:10:15;;;;;;;3.20;3.00;;;20.20;99.90;;;;;;5029509;28;20482;-64
2023/08/22 04:12:44;;;;;;;5.63;4.00;;;20.20;99.90;;;;;;5029504;28;20951;-65
2023/08/22 04:15:12;;;;;;;3.57;3.27;;;20.20;99.90;;;;;;5029614;28;20944;-65
2023/08/22 04:17:41;;;;;;;4.87;3.87;;;20.20;99.90;;;;;;5029473;28;20489;-64
2023/08/22 04:20:10;;;;;;;3.83;3.53;;;20.10;99.90;;;;;;5029245;28;20476;-64
2023/08/22 04:22:37;;;;;;;3.60;3.30;;;20.10;99.90;;;;;;5029400;28;20526;-65
2023/08/22 04:25:05;;;;;;;4.83;3.47;;;20.10;99.90;;;;;;5029846;28;20464;-64
2023/08/22 04:27:31;;;;;;;3.33;3.03;;;20.10;99.90;;;;;;5029354;28;20526;-64
2023/08/22 04:30:00;;;;;;;3.93;3.53;;;20.00;99.90;;;;;;5029046;28;20503;-63
2023/08/22 04:32:26;;;;;;;4.10;3.70;;;20.00;99.90;;;;;;5029739;28;20484;-65
2023/08/22 04:34:53;;;;;;;4.40;4.00;;;20.00;99.90;;;;;;5029001;28;20457;-64
2023/08/22 04:37:20;;;;;;;3.50;3.20;;;20.00;99.90;;;;;;5029214;28;20465;-65
2023/08/22 04:39:47;;;;;;;4.07;3.33;;;20.00;99.90;;;;;;5028690;28;20855;-64
2023/08/22 04:42:14;;;;;;;4.17;3.53;;;20.00;99.90;;;;;;5029039;28;20452;-64
2023/08/22 04:44:41;;;;;;;4.73;3.87;;;20.00;99.90;;;;;;5029035;28;20852;-65
2023/08/22 04:47:09;;;;;;;5.23;3.90;;;20.00;99.90;;;;;;5029478;28;20463;-63
2023/08/22 04:49:35;;;;;;;3.90;3.50;;;20.00;99.90;;;;;;5026923;28;20487;-64
2023/08/22 04:52:03;;;;;;;5.17;3.40;;;19.90;99.90;;;;;;5024876;28;20835;-63
2023/08/22 04:54:29;;;;;;;3.83;3.40;;;19.90;99.90;;;;;;5025599;28;20456;-64
2023/08/22 04:56:56;;;;;;;6.13;3.47;;;20.00;99.90;;;;;;5028492;28;20964;-64
2023/08/22 04:59:23;;;;;;;4.40;4.00;;;19.90;99.90;;;;;;5029453;28;20473;-64
2023/08/22 05:01:50;;;;;;;6.70;3.37;;;19.90;99.90;;;;;;5020943;28;20460;-64
2023/08/22 05:04:18;;;;;;;4.03;3.73;;;19.90;99.90;;;;;;5029237;28;20473;-64
2023/08/22 05:06:45;;;;;;;5.93;4.47;;;20.00;99.90;;;;;;5029146;28;22208;-64
2023/08/22 05:09:13;;;;;;;6.13;3.67;;;20.00;99.90;;;;;;5029237;28;20488;-64
2023/08/22 05:11:40;;;;;;;4.70;3.47;;;20.00;99.90;;;;;;5028872;28;20522;-64
2023/08/22 05:14:07;;;;;;;3.90;3.50;;;20.10;99.90;;;;;;5029511;28;20518;-64
2023/08/22 05:16:34;;;;;;;4.43;4.03;;;20.10;99.90;;;;;;5029191;28;20461;-64
2023/08/22 05:19:01;;;;;;;4.23;3.93;;;20.10;99.90;;;;;;5028844;28;20480;-64
2023/08/22 05:21:29;;;;;;;4.63;3.93;;;20.10;99.90;;;;;;5031442;28;20467;-64
2023/08/22 05:23:55;;;;;;;5.13;4.63;;;20.20;99.90;;;;;;5032548;28;20477;-65
2023/08/22 05:26:22;;;;;;;4.30;3.90;;;20.20;99.90;;;;;;5032630;28;20457;-64
2023/08/22 05:28:49;;;;;;;5.60;4.20;;;20.20;99.90;;;;;;5032228;28;20826;-65
2023/08/22 05:31:20;;;;;;;4.27;3.80;;;20.30;99.90;;;;;;5032545;28;20456;-64
2023/08/22 05:33:47;;;;;;;4.37;3.97;;;20.30;99.90;;;;;;5032414;28;20456;-65
2023/08/22 05:36:14;;;;;;;4.77;4.33;;;20.30;99.90;;;;;;5032942;28;20464;-65
2023/08/22 05:38:42;;;;;;;4.67;4.27;;;20.30;99.90;;;;;;5032195;28;20456;-65
2023/08/22 05:41:09;;;;;;;5.53;4.87;;;20.40;99.90;;;;;;5032521;28;20830;-70
2023/08/22 05:43:37;;;;;;;5.10;4.60;;;20.50;99.90;;;;;;5032165;28;20548;-67
2023/08/22 05:46:03;;;;;;;4.73;4.33;;;20.50;99.90;;;;;;5032528;28;20456;-67
2023/08/22 05:48:30;;;;;;;6.17;4.93;;;20.60;99.90;;;;;;5032075;28;20464;-70
2023/08/22 05:50:57;;;;;;;5.07;4.57;;;20.70;99.90;;;;;;5032105;28;20483;-67
2023/08/22 05:53:24;;;;;;;7.37;4.97;;;20.80;99.90;;;;;;5032621;28;20953;-67
2023/08/22 05:55:52;;;;;;;6.07;4.97;;;20.90;99.90;;;;;;5032276;28;20470;-67
2023/08/22 05:58:19;;;;;;;5.00;4.50;;;21.00;99.90;;;;;;5032237;28;20815;-69
2023/08/22 06:00:46;;;;;;;6.23;4.30;;;21.00;99.90;;;;;;5031702;28;20480;-67
2023/08/22 06:03:13;;;;;;;5.23;4.73;;;21.10;99.90;;;;;;5032307;28;21015;-67
2023/08/22 06:05:39;;;;;;;4.47;4.10;;;21.20;99.90;;;;;;5032092;28;20449;-68
2023/08/22 06:08:06;;;;;;;4.97;4.47;;;21.30;99.90;;;;;;5031785;28;20454;-66
2023/08/22 06:10:33;;;;;;;4.83;4.23;;;21.30;99.90;;;;;;5026405;28;20483;-67
2023/08/22 06:13:01;;;;;;;6.70;5.33;;;21.40;99.90;;;;;;5031893;28;20467;-69
2023/08/22 06:15:28;;;;;;;5.07;4.13;;;21.50;99.90;;;;;;5032168;28;20465;-69
2023/08/22 06:17:55;;;;;;;4.57;4.10;;;21.60;99.90;;;;;;5031295;28;20465;-67
2023/08/22 06:20:21;;;;;;;5.47;4.93;;;21.80;99.90;;;;;;5031852;28;20499;-67
2023/08/22 06:22:48;;;;;;;5.50;4.20;;;21.90;99.90;;;;;;5031555;28;20459;-66
2023/08/22 06:25:15;;;;;;;6.80;4.70;;;22.00;99.90;;;;;;5032147;28;20459;-67
2023/08/22 06:27:42;;;;;;;4.40;4.00;;;22.10;99.90;;;;;;5031443;28;20461;-67
2023/08/22 06:30:11;;;;;;;4.00;3.63;;;22.30;99.90;;;;;;5130498;23;20504;-68
2023/08/22 06:32:37;;;;;;;5.53;4.93;;;22.40;99.90;;;;;;5068528;28;20465;-67
2023/08/22 06:35:05;;;;;;;4.20;3.80;;;22.50;99.90;;;;;;5079634;28;20453;-67
2023/08/22 06:37:32;;;;;;;4.37;3.97;;;22.60;99.90;;;;;;5072697;28;20466;-67
2023/08/22 06:39:59;;;;;;;4.93;4.50;;;22.70;99.90;;;;;;5069476;28;21022;-67
2023/08/22 06:42:26;;;;;;;4.30;3.90;;;22.80;99.90;;;;;;5070155;28;20461;-67
2023/08/22 06:44:52;;;;;;;4.67;4.10;;;22.90;99.90;;;;;;5088875;28;20547;-68
2023/08/22 06:47:20;;;;;;;4.63;4.20;;;23.00;99.90;;;;;;5089568;28;20461;-66
2023/08/22 06:49:47;;;;;;;5.50;4.30;;;23.00;99.90;;;;;;5088238;28;20856;-67
2023/08/22 06:52:14;;;;;;;4.90;4.43;;;23.10;99.90;;;;;;5083673;28;20908;-70
2023/08/22 06:54:41;;;;;;;4.23;3.40;;;23.30;99.90;;;;;;5090055;28;21065;-69
2023/08/22 06:57:08;;;;;;;4.13;3.73;;;23.40;99.90;;;;;;5089850;28;20458;-69
2023/08/22 06:59:34;;;;;;;4.37;3.97;;;23.50;99.90;;;;;;5089748;28;20903;-74
2023/08/22 07:02:01;;;;;;;4.53;3.63;;;23.60;99.90;;;;;;5069448;28;20454;-68
2023/08/22 07:04:30;;;;;;;5.53;4.00;;;23.70;99.90;;;;;;5069375;28;20851;-70
2023/08/22 07:06:57;;;;;;;4.53;4.13;;;23.80;99.90;;;;;;5069662;28;20501;-71
2023/08/22 07:09:24;;;;;;;5.13;4.40;;;23.90;99.90;;;;;;5069390;28;20859;-69
2023/08/22 07:11:50;;;;;;;4.73;4.17;;;23.90;99.90;;;;;;5087700;28;20462;-69
2023/08/22 07:14:17;;;;;;;6.17;3.80;;;24.00;99.90;;;;;;5089829;28;20465;-67
2023/08/22 07:16:44;;;;;;;4.33;3.87;;;24.10;99.90;;;;;;5089766;28;20453;-69
2023/08/22 07:19:10;;;;;;;4.90;3.70;;;24.20;99.90;;;;;;5089272;28;20485;-66
2023/08/22 07:21:39;;;;;;;5.00;3.50;;;24.30;99.90;;;;;;5089724;28;20846;-67
2023/08/22 07:24:06;;;;;;;4.03;3.73;;;24.40;99.90;;;;;;5077937;28;20552;-66
2023/08/22 07:26:33;;;;;;;3.80;3.50;;;24.50;99.90;;;;;;5068736;28;20458;-67
2023/08/22 07:28:59;;;;;;;3.83;3.53;;;24.60;99.90;;;;;;5088812;28;20909;-68
2023/08/22 07:31:26;;;;;;;3.93;3.53;;;24.70;99.90;;;;;;5082539;28;20451;-67
2023/08/22 07:33:53;;;;;;;5.60;4.00;;;24.80;99.90;;;;;;5088165;28;20804;-68
2023/08/22 07:36:20;;;;;;;3.50;3.20;;;24.90;99.90;;;;;;5089740;28;20454;-67
2023/08/22 07:38:49;;;;;;;4.23;3.83;;;25.00;99.90;;;;;;5089298;28;20476;-68
2023/08/22 07:41:16;;;;;;;4.10;3.47;;;25.10;99.90;;;;;;5089257;28;20933;-67
2023/08/22 07:43:43;;;;;;;4.47;4.07;;;25.30;99.90;;;;;;5089380;28;20499;-71
2023/08/22 07:46:09;;;;;;;3.97;3.57;;;25.40;99.90;;;;;;5090050;28;20454;-67
2023/08/22 07:48:36;;;;;;;4.20;3.80;;;25.50;99.90;;;;;;5088844;28;20540;-67
2023/08/22 07:51:03;;;;;;;3.90;3.50;;;25.60;99.90;;;;;;5077978;28;20824;-67
2023/08/22 07:53:30;;;;;;;3.63;3.33;;;25.70;99.90;;;;;;5076254;28;20462;-66
2023/08/22 07:55:58;;;;;;;3.70;3.40;;;25.80;99.90;;;;;;5089297;28;20449;-72
2023/08/22 07:58:25;;;;;;;4.80;4.07;;;25.90;99.90;;;;;;5089253;28;20461;-69
2023/08/22 08:00:52;;;;;;;3.80;3.40;;;26.00;99.90;;;;;;5089251;28;20485;-70
2023/08/22 08:03:19;;;;;;;3.70;2.93;;;26.10;99.90;;;;;;5088906;28;20454;-69
2023/08/22 08:05:45;;;;;;;3.50;3.20;;;26.20;99.90;;;;;;5089648;28;20860;-69
2023/08/22 08:08:12;;;;;;;3.00;2.70;;;26.30;99.90;;;;;;5089562;28;20458;-69
2023/08/22 08:10:39;;;;;;;2.60;2.40;;;26.50;99.90;;;;;;5088528;28;20489;-70
2023/08/22 08:13:07;;;;;;;3.10;2.77;;;26.60;99.90;;;;;;5089477;28;20837;-69
2023/08/22 08:15:34;;;;;;;3.27;2.97;;;26.70;99.90;;;;;;5089056;28;20458;-71
2023/08/22 08:18:01;;;;;;;3.03;2.83;;;26.70;99.90;;;;;;5088573;28;20460;-70
2023/08/22 08:20:28;;;;;;;4.90;3.10;;;26.80;99.90;;;;;;5088782;28;20505;-69
2023/08/22 08:22:54;;;;;;;3.07;2.67;;;26.90;99.90;;;;;;5089505;28;20519;-69
2023/08/22 08:25:21;;;;;;;3.20;2.70;;;27.00;99.90;;;;;;5088788;28;20903;-70
2023/08/22 08:27:48;;;;;;;3.67;3.13;;;27.10;99.90;;;;;;5088805;28;20983;-70
2023/08/22 08:30:16;;;;;;;3.30;3.00;;;27.10;99.90;;;;;;5088699;28;20489;-69
2023/08/22 08:32:43;;;;;;;3.23;2.90;;;27.10;99.90;;;;;;5088973;28;20461;-69
2023/08/22 08:35:10;;;;;;;4.60;3.00;;;27.20;99.90;;;;;;5089079;28;20454;-70
2023/08/22 08:37:37;;;;;;;3.50;3.20;;;27.40;99.90;;;;;;5089834;28;20888;-70
2023/08/22 08:40:07;;;;;;;3.27;3.00;;;27.40;99.90;;;;;;5089457;28;20473;-69
2023/08/22 08:42:36;;;;;;;3.50;3.20;;;27.50;99.90;;;;;;5090007;28;20473;-67
2023/08/22 08:45:05;;;;;;;3.30;3.00;;;27.60;99.90;;;;;;5082965;28;20946;-70
2023/08/22 08:47:35;;;;;;;3.00;2.80;;;27.70;99.90;;;;;;5084981;28;20524;-67
2023/08/22 08:50:04;;;;;;;4.00;3.00;;;27.80;99.90;;;;;;5067787;28;20487;-68
2023/08/22 08:52:31;;;;;;;3.83;3.13;;;27.90;99.90;;;;;;5074272;28;20458;-69
2023/08/22 08:54:58;;;;;;;3.60;3.30;;;28.00;99.90;;;;;;5090919;28;20450;-67
2023/08/22 08:57:26;;;;;;;4.17;3.47;;;28.10;99.90;;;;;;5089322;28;20486;-67
2023/08/22 08:59:53;;;;;;;3.67;3.20;;;28.20;99.90;;;;;;5080902;28;20905;-68
2023/08/22 09:02:21;;;;;;;3.80;3.50;;;28.30;99.90;;;;;;5092487;28;20929;-69
2023/08/22 09:04:49;;;;;;;6.17;3.20;;;28.30;99.90;;;;;;5093084;28;20481;-69
2023/08/22 09:07:17;;;;;;;3.90;3.60;;;28.50;99.90;;;;;;5092850;28;20483;-67
2023/08/22 09:09:44;;;;;;;3.80;3.50;;;28.50;99.90;;;;;;5093104;28;20582;-69
2023/08/22 09:12:13;;;;;;;3.13;2.83;;;28.60;99.90;;;;;;5092600;28;20532;-70
2023/08/22 09:14:41;;;;;;;3.50;3.20;;;28.70;99.90;;;;;;5092051;28;20454;-68
2023/08/22 09:17:08;;;;;;;3.83;3.33;;;28.90;99.90;;;;;;5092593;28;20473;-71
2023/08/22 09:19:35;;;;;;;4.13;3.30;;;28.90;99.90;;;;;;5092665;28;20474;-67
2023/08/22 09:22:04;;;;;;;3.50;3.20;;;29.00;99.90;;;;;;5092106;28;20461;-68
2023/08/22 09:24:32;;;;;;;3.83;3.50;;;29.10;99.90;;;;;;5092499;28;20984;-67
2023/08/22 09:27:02;;;;;;;3.80;3.50;;;29.20;99.90;;;;;;5092110;28;20457;-71
2023/08/22 09:29:30;;;;;;;4.20;3.80;;;29.30;99.90;;;;;;5091919;28;20478;-71
2023/08/22 09:31:58;;;;;;;3.80;3.40;;;29.40;99.90;;;;;;5092047;28;20453;-67
2023/08/22 09:34:25;;;;;;;3.70;3.30;;;29.50;99.90;;;;;;5092204;28;20485;-67
2023/08/22 09:36:53;;;;;;;3.83;3.50;;;29.60;99.90;;;;;;5091687;28;20488;-67
2023/08/22 09:39:22;;;;;;;5.93;3.70;;;29.80;99.90;;;;;;5091864;28;20478;-68
2023/08/22 09:41:53;;;;;;;6.90;3.53;;;29.90;99.90;;;;;;5092130;28;20487;-70
2023/08/22 09:44:22;;;;;;;4.03;3.63;;;30.10;99.90;;;;;;5091784;28;20568;-70
2023/08/22 09:46:50;;;;;;;3.60;3.30;;;30.20;99.90;;;;;;5092380;28;20519;-70
2023/08/22 09:49:17;;;;;;;3.33;3.03;;;30.30;99.90;;;;;;5091929;28;20470;-71
2023/08/22 09:51:45;;;;;;;3.57;3.27;;;30.30;99.90;;;;;;5091696;28;20461;-69
2023/08/22 09:54:13;;;;;;;3.33;3.07;;;30.20;99.90;;;;;;5092821;28;20458;-65
2023/08/22 09:56:41;;;;;;;4.10;3.07;;;30.00;99.90;;;;;;5092765;28;20464;-67
2023/08/22 09:59:09;;;;;;;7.50;4.57;;;29.80;99.90;;;;;;5091729;28;20481;-67
2023/08/22 10:01:37;;;;;;;4.10;3.70;;;29.70;99.90;;;;;;5077862;28;20558;-68
2023/08/22 10:04:05;;;;;;;3.60;3.30;;;29.50;99.90;;;;;;5090025;28;20465;-65
2023/08/22 10:06:35;;;;;;;3.50;3.20;;;29.50;99.90;;;;;;5091220;28;20473;-68
2023/08/22 10:09:08;;;;;;;3.90;3.50;;;29.50;99.90;;;;;;5082092;28;20478;-68
2023/08/22 10:11:41;;;;;;;3.97;3.63;;;29.40;99.90;;;;;;5091649;28;20458;-68
2023/08/22 10:14:14;;;;;;;3.67;3.37;;;29.50;99.90;;;;;;5091874;28;20472;-68
2023/08/22 10:16:42;;;;;;;3.20;2.70;;;29.50;99.90;;;;;;5092091;28;20461;-68
2023/08/22 10:19:10;;;;;;;3.93;3.63;;;29.60;99.90;;;;;;5091675;28;20474;-68
2023/08/22 10:21:47;;;;;;;4.23;3.50;;;29.60;99.90;;;;;;5091539;28;20477;-68
2023/08/22 10:24:22;;;;;;;3.27;3.00;;;29.80;99.90;;;;;;5091812;28;20460;-67
2023/08/22 10:27:02;;;;;;;3.40;3.10;;;30.00;99.90;;;;;;5091814;28;20554;-68
2023/08/22 10:29:34;;;;;;;3.70;3.40;;;30.30;99.90;;;;;;5091538;28;20473;-67
2023/08/22 10:32:21;;;;;;;3.67;3.37;;;30.50;99.90;;;;;;5091353;28;20874;-67
2023/08/22 10:35:06;;;;;;;3.23;3.00;;;30.90;99.90;;;;;;5091860;28;20482;-68
2023/08/22 10:37:33;;;;;;;3.60;3.30;;;30.80;99.90;;;;;;5091405;28;20454;-68
2023/08/22 10:40:04;;;;;;;3.77;3.47;;;30.80;99.90;;;;;;5082332;28;20478;-68
2023/08/22 10:42:32;;;;;;;3.97;3.20;;;30.90;99.90;;;;;;5083002;28;20454;-67
2023/08/22 10:45:00;;;;;;;3.57;3.00;;;31.00;99.90;;;;;;5091373;28;20477;-67
2023/08/22 10:47:30;;;;;;;3.40;3.10;;;31.10;99.90;;;;;;5087362;28;20465;-67
2023/08/22 10:49:58;;;;;;;3.27;2.97;;;31.30;99.90;;;;;;5079234;28;20498;-67
2023/08/22 10:52:27;;;;;;;3.03;2.83;;;31.40;99.90;;;;;;5091121;28;20460;-67
2023/08/22 10:54:58;;;;;;;3.87;3.10;;;31.30;99.90;;;;;;5088431;28;20487;-66
2023/08/22 10:57:26;;;;;;;3.00;2.80;;;31.20;99.90;;;;;;5091328;28;20458;-68
2023/08/22 10:59:56;;;;;;;3.67;3.37;;;31.00;99.90;;;;;;5091207;28;20504;-67
2023/08/22 11:02:29;;;;;;;3.50;3.20;;;30.90;99.90;;;;;;5082426;28;20466;-71
2023/08/22 11:04:57;;;;;;;3.20;2.90;;;30.70;99.90;;;;;;5091789;28;20918;-68
2023/08/22 11:07:25;;;;;;;2.70;2.50;;;30.40;99.90;;;;;;5091644;28;20984;-69
2023/08/22 11:09:54;;;;;;;3.53;3.20;;;30.30;99.90;;;;;;5083514;28;20486;-67
2023/08/22 11:12:22;;;;;;;2.90;2.70;;;30.50;99.90;;;;;;5081278;28;20465;-67
2023/08/22 11:14:51;;;;;;;4.03;3.50;;;30.70;99.90;;;;;;5075991;28;20550;-67
2023/08/22 11:17:19;;;;;;;4.20;3.80;;;30.80;99.90;;;;;;5078285;28;20489;-65
2023/08/22 11:19:49;;;;;;;4.17;3.70;;;30.80;99.90;;;;;;5078226;28;20531;-66
2023/08/22 11:22:16;;;;;;;5.43;4.20;;;30.70;99.90;;;;;;5077800;28;20458;-67
2023/08/22 11:24:44;;;;;;;5.33;3.60;;;30.60;99.90;;;;;;5084126;28;20488;-65
2023/08/22 11:27:13;;;;;;;3.50;3.20;;;30.70;99.90;;;;;;5080052;28;20466;-68
2023/08/22 11:29:42;;;;;;;4.10;3.60;;;30.80;99.90;;;;;;5069970;28;20486;-66
2023/08/22 11:32:20;;;;;;;4.13;3.67;;;30.80;99.90;;;;;;5078709;28;20490;-67
2023/08/22 11:34:50;;;;;;;4.03;3.03;;;30.60;99.90;;;;;;5070614;28;20450;-72
2023/08/22 11:37:18;;;;;;;5.50;3.60;;;30.50;99.90;;;;;;5089268;28;20504;-71
2023/08/22 11:39:48;;;;;;;3.70;3.40;;;30.40;99.90;;;;;;5090048;28;20895;-70
2023/08/22 11:42:16;;;;;;;3.60;3.30;;;30.50;99.90;;;;;;5089895;28;20457;-69
2023/08/22 11:44:53;;;;;;;3.97;3.57;;;30.60;99.90;;;;;;5084932;28;20447;-69
2023/08/22 11:47:21;;;;;;;3.40;3.17;;;30.80;99.90;;;;;;5085358;28;20544;-70
2023/08/22 11:49:51;;;;;;;4.10;3.80;;;30.90;99.90;;;;;;5081730;28;20469;-71
2023/08/22 11:52:18;;;;;;;4.13;3.67;;;31.00;99.90;;;;;;5080247;28;20459;-67
2023/08/22 11:54:45;;;;;;;4.10;3.70;;;31.20;99.90;;;;;;5085434;28;20514;-68
2023/08/22 11:57:15;;;;;;;3.97;3.57;;;31.30;99.90;;;;;;5082092;28;20461;-71
2023/08/22 11:59:43;;;;;;;3.90;3.20;;;31.40;99.90;;;;;;5089811;28;20470;-69
2023/08/22 12:02:11;;;;;;;3.77;3.47;;;31.30;99.90;;;;;;5069450;28;20477;-68
2023/08/22 12:04:42;;;;;;;4.23;3.90;;;31.10;99.90;;;;;;5089683;28;20889;-68
2023/08/22 12:07:10;;;;;;;3.87;3.57;;;31.10;99.90;;;;;;5090227;28;20464;-68
2023/08/22 12:09:37;;;;;;;4.23;3.83;;;31.30;99.90;;;;;;5085743;28;20481;-68
2023/08/22 12:12:12;;;;;;;3.83;3.53;;;31.50;99.90;;;;;;5069561;28;20516;-67
2023/08/22 12:14:39;;;;;;;3.80;3.50;;;31.80;99.90;;;;;;5082838;28;20544;-67
2023/08/22 12:17:06;;;;;;;3.70;3.40;;;32.00;99.90;;;;;;5086482;28;20458;-67
2023/08/22 12:19:33;;;;;;;4.20;3.80;;;32.10;99.90;;;;;;5082673;28;20565;-68
2023/08/22 12:22:00;;;;;;;4.90;4.50;;;32.30;99.90;;;;;;5082533;28;20461;-70
2023/08/22 12:24:28;;;;;;;3.87;3.53;;;32.50;99.90;;;;;;5070236;28;20458;-71
2023/08/22 12:26:55;;;;;;;3.70;3.40;;;32.80;99.90;;;;;;5084476;28;20489;-70
2023/08/22 12:29:22;;;;;;;3.40;3.10;;;32.90;99.90;;;;;;5079316;28;20487;-69
2023/08/22 12:31:48;;;;;;;5.27;3.40;;;32.90;99.90;;;;;;5087142;28;20462;-70
2023/08/22 12:34:15;;;;;;;4.03;3.70;;;32.70;99.90;;;;;;5084151;28;20469;-71
2023/08/22 12:36:42;;;;;;;3.93;3.63;;;32.60;99.90;;;;;;5074108;28;20454;-71
2023/08/22 12:39:10;;;;;;;3.83;3.50;;;32.70;99.90;;;;;;5073578;28;20493;-72
2023/08/22 12:41:39;;;;;;;3.70;3.17;;;32.70;99.90;;;;;;5072540;28;20533;-68
2023/08/22 12:44:06;;;;;;;4.07;3.67;;;32.90;99.90;;;;;;5073436;28;20921;-68
2023/08/22 12:46:32;;;;;;;3.80;3.50;;;33.00;99.90;;;;;;5073307;28;20505;-67
2023/08/22 12:48:59;;;;;;;4.20;3.40;;;33.20;99.90;;;;;;5088361;28;20477;-71
2023/08/22 12:51:26;;;;;;;3.20;3.00;;;33.40;99.90;;;;;;5092949;28;20457;-70